Time;durP1;ratioP1;P1;durP2;ratioP2;P2;SDS_P1;SDS_P2;PMS_P1;PMS_P2;Temp;Humidity;BMP_temperature;BMP_pressure;BME280_temperature;BME280_humidity;BME280_pressure;Samples;Min_cycle;Max_cycle;Signal;HPM_P1;HPM_P2
2023/10/19 00:00:51;;;;;;;12.27;7.60;;;;;;;;;;5104249;28;20653;-80
2023/10/19 00:03:24;;;;;;;12.30;6.63;;;;;;;;;;5106799;28;20448;-79
2023/10/19 00:05:51;;;;;;;8.03;6.63;;;;;;;;;;5106583;28;20459;-80
2023/10/19 00:08:20;;;;;;;10.30;6.93;;;;;;;;;;5106429;28;20491;-80
2023/10/19 00:10:47;;;;;;;10.97;7.93;;;;;;;;;;5104501;28;20486;-79
2023/10/19 00:13:19;;;;;;;10.27;6.80;;;;;;;;;;5102117;28;20451;-80
2023/10/19 00:15:48;;;;;;;13.00;7.70;;;;;;;;;;5103094;28;20447;-80
2023/10/19 00:18:24;;;;;;;10.37;7.30;;;;;;;;;;5104025;28;20743;-79
2023/10/19 00:20:53;;;;;;;14.00;9.43;;;;;;;;;;5104885;28;20883;-79
2023/10/19 00:23:27;;;;;;;8.93;7.17;;;;;;;;;;5104210;28;20506;-79
2023/10/19 00:25:54;;;;;;;9.40;7.37;;;;;;;;;;5106732;28;20518;-80
2023/10/19 00:28:24;;;;;;;11.43;7.77;;;;;;;;;;5108972;28;20500;-79
2023/10/19 00:30:52;;;;;;;12.77;6.57;;;;;;;;;;5108911;28;20455;-79
2023/10/19 00:33:21;;;;;;;9.67;7.43;;;;;;;;;;5109099;28;20443;-78
2023/10/19 00:35:54;;;;;;;11.47;8.47;;;;;;;;;;5108837;28;20479;-79
2023/10/19 00:38:38;;;;;;;14.43;8.40;;;;;;;;;;5109524;28;20922;-79
2023/10/19 00:41:07;;;;;;;14.70;7.77;;;;;;;;;;5108129;28;20460;-80
2023/10/19 00:43:36;;;;;;;9.33;7.23;;;;;;;;;;5109432;28;20479;-80
2023/10/19 00:46:04;;;;;;;8.93;7.00;;;;;;;;;;5113941;28;20463;-79
2023/10/19 00:48:39;;;;;;;12.77;8.50;;;;;;;;;;5111807;28;20529;-80
2023/10/19 00:51:20;;;;;;;10.90;8.30;;;;;;;;;;5110583;28;20526;-80
2023/10/19 00:53:49;;;;;;;9.63;7.50;;;;;;;;;;5106354;28;20455;-79
2023/10/19 00:56:19;;;;;;;11.03;8.17;;;;;;;;;;5111581;28;20459;-80
2023/10/19 00:58:53;;;;;;;10.30;7.77;;;;;;;;;;5111829;28;20481;-80
2023/10/19 01:01:21;;;;;;;11.03;7.70;;;;;;;;;;5111448;28;20448;-79
2023/10/19 01:03:56;;;;;;;12.23;7.70;;;;;;;;;;5113821;28;20483;-79
2023/10/19 01:06:23;;;;;;;12.73;7.70;;;;;;;;;;5113514;28;20447;-79
2023/10/19 01:08:52;;;;;;;12.43;7.07;;;;;;;;;;5113995;28;20552;-80
2023/10/19 01:11:28;;;;;;;10.63;7.27;;;;;;;;;;5113886;28;20519;-80
2023/10/19 01:13:56;;;;;;;9.43;7.00;;;;;;;;;;5108338;28;20940;-79
2023/10/19 01:16:23;;;;;;;9.87;7.70;;;;;;;;;;5098512;28;20537;-81
2023/10/19 01:18:53;;;;;;;12.93;7.90;;;;;;;;;;5099722;28;20501;-80
2023/10/19 01:21:24;;;;;;;18.23;8.30;;;;;;;;;;5107135;28;20805;-79
2023/10/19 01:23:52;;;;;;;11.33;7.70;;;;;;;;;;5107862;28;20864;-80
2023/10/19 01:26:25;;;;;;;10.93;8.10;;;;;;;;;;5117934;28;20483;-80
2023/10/19 01:28:58;;;;;;;10.90;7.60;;;;;;;;;;5130042;28;20516;-79
2023/10/19 01:31:37;;;;;;;13.70;8.80;;;;;;;;;;5130105;28;20486;-79
2023/10/19 01:34:06;;;;;;;14.07;8.80;;;;;;;;;;5124560;28;20485;-79
2023/10/19 01:36:37;;;;;;;12.70;7.53;;;;;;;;;;5125843;28;20454;-79
2023/10/19 01:39:09;;;;;;;11.83;7.90;;;;;;;;;;5129067;28;20454;-79
2023/10/19 01:41:37;;;;;;;12.30;7.70;;;;;;;;;;5129225;28;20466;-79
2023/10/19 01:44:04;;;;;;;11.27;8.67;;;;;;;;;;5123261;28;20483;-80
2023/10/19 01:46:33;;;;;;;11.33;7.50;;;;;;;;;;5124243;28;20454;-79
2023/10/19 01:49:01;;;;;;;10.70;8.63;;;;;;;;;;5122997;28;21027;-79
2023/10/19 01:51:30;;;;;;;11.67;8.10;;;;;;;;;;5126650;28;20454;-81
2023/10/19 01:53:57;;;;;;;9.73;7.03;;;;;;;;;;5129681;28;20443;-81
2023/10/19 01:56:25;;;;;;;10.10;7.27;;;;;;;;;;5126573;28;20486;-79
2023/10/19 01:58:52;;;;;;;10.60;7.20;;;;;;;;;;5125270;28;20458;-80
2023/10/19 02:01:28;;;;;;;12.40;8.13;;;;;;;;;;5126229;28;20461;-79
2023/10/19 02:03:58;;;;;;;12.40;8.37;;;;;;;;;;5123051;28;20450;-79
2023/10/19 02:06:28;;;;;;;13.27;8.07;;;;;;;;;;5116106;28;20459;-79
2023/10/19 02:08:56;;;;;;;10.70;7.80;;;;;;;;;;5105220;28;20491;-79
2023/10/19 02:11:26;;;;;;;10.90;7.60;;;;;;;;;;5106412;28;20512;-79
2023/10/19 02:13:54;;;;;;;10.10;7.60;;;;;;;;;;5102393;28;20451;-79
2023/10/19 02:16:22;;;;;;;11.53;8.17;;;;;;;;;;5101941;28;20487;-79
2023/10/19 02:18:49;;;;;;;14.33;8.20;;;;;;;;;;5101696;28;20509;-81
2023/10/19 02:21:21;;;;;;;11.03;7.47;;;;;;;;;;5105938;28;20450;-79
2023/10/19 02:23:50;;;;;;;10.70;7.73;;;;;;;;;;5104231;28;20554;-80
2023/10/19 02:26:19;;;;;;;12.53;8.70;;;;;;;;;;5102621;28;20487;-81
2023/10/19 02:28:50;;;;;;;14.20;8.10;;;;;;;;;;5106605;28;20483;-80
2023/10/19 02:31:19;;;;;;;11.63;7.90;;;;;;;;;;5105964;28;20701;-79
2023/10/19 02:33:46;;;;;;;14.60;8.33;;;;;;;;;;5103554;28;20701;-78
2023/10/19 02:36:15;;;;;;;13.30;7.63;;;;;;;;;;5106036;28;20543;-80
2023/10/19 02:38:44;;;;;;;12.00;8.43;;;;;;;;;;5110354;28;20863;-79
2023/10/19 02:41:12;;;;;;;10.53;8.10;;;;;;;;;;5110510;28;20452;-81
2023/10/19 02:43:40;;;;;;;11.43;8.57;;;;;;;;;;5105919;28;20459;-80
2023/10/19 02:46:09;;;;;;;13.20;8.77;;;;;;;;;;5107233;28;20480;-79
2023/10/19 02:48:38;;;;;;;12.50;8.23;;;;;;;;;;5104569;28;20803;-80
2023/10/19 02:51:10;;;;;;;11.17;8.00;;;;;;;;;;5110584;28;20455;-79
2023/10/19 02:53:42;;;;;;;13.27;8.23;;;;;;;;;;5108367;28;20555;-79
2023/10/19 02:56:12;;;;;;;12.10;7.20;;;;;;;;;;5103506;28;20452;-80
2023/10/19 02:58:42;;;;;;;13.60;7.93;;;;;;;;;;5103477;28;20467;-81
2023/10/19 03:01:21;;;;;;;14.50;8.17;;;;;;;;;;5106464;28;20469;-80
2023/10/19 03:03:49;;;;;;;15.57;9.50;;;;;;;;;;5112288;28;20439;-81
2023/10/19 03:06:19;;;;;;;15.13;9.67;;;;;;;;;;5114127;28;20462;-79
2023/10/19 03:08:47;;;;;;;14.50;9.83;;;;;;;;;;5111734;28;20458;-79
2023/10/19 03:11:17;;;;;;;12.47;8.73;;;;;;;;;;5110774;28;20528;-81
2023/10/19 03:13:45;;;;;;;16.37;8.70;;;;;;;;;;5112558;28;20431;-80
2023/10/19 03:16:12;;;;;;;16.20;9.53;;;;;;;;;;5110703;28;20582;-79
2023/10/19 03:18:40;;;;;;;16.17;9.60;;;;;;;;;;5114249;28;20448;-79
2023/10/19 03:21:08;;;;;;;14.20;9.47;;;;;;;;;;5115675;28;20462;-79
2023/10/19 03:23:34;;;;;;;13.30;9.50;;;;;;;;;;5111320;28;20456;-81
2023/10/19 03:28:47;;;;;;;19.20;10.83;;;;;;;;;;5111674;28;20477;-79
2023/10/19 03:31:17;;;;;;;15.20;9.90;;;;;;;;;;5108455;28;20550;-79
2023/10/19 03:33:50;;;;;;;14.53;10.13;;;;;;;;;;5107321;28;20444;-80
2023/10/19 03:36:18;;;;;;;18.03;10.33;;;;;;;;;;5112354;28;20455;-79
2023/10/19 03:38:45;;;;;;;13.67;9.43;;;;;;;;;;5111882;28;20529;-80
2023/10/19 03:41:14;;;;;;;15.73;10.43;;;;;;;;;;5107932;28;20453;-80
2023/10/19 03:43:42;;;;;;;16.90;11.60;;;;;;;;;;5109178;28;20545;-80
2023/10/19 03:46:22;;;;;;;16.57;10.47;;;;;;;;;;5102754;28;20802;-78
2023/10/19 03:48:51;;;;;;;18.30;10.37;;;;;;;;;;5106646;28;20447;-79
2023/10/19 03:51:18;;;;;;;16.10;9.33;;;;;;;;;;5103182;28;20506;-79
2023/10/19 03:53:53;;;;;;;16.70;11.00;;;;;;;;;;5102058;28;20463;-79
2023/10/19 03:56:21;;;;;;;14.97;9.97;;;;;;;;;;5109057;28;20455;-79
2023/10/19 03:58:50;;;;;;;13.97;9.10;;;;;;;;;;5109565;28;20487;-79
2023/10/19 04:01:19;;;;;;;18.30;10.70;;;;;;;;;;5111352;28;20459;-82
2023/10/19 04:03:48;;;;;;;15.87;9.77;;;;;;;;;;5111684;28;20455;-81
2023/10/19 04:06:20;;;;;;;13.70;10.07;;;;;;;;;;5110882;28;20478;-80
2023/10/19 04:08:50;;;;;;;19.27;10.87;;;;;;;;;;5108084;28;20875;-80
2023/10/19 04:11:32;;;;;;;16.10;10.67;;;;;;;;;;5111807;28;20452;-79
2023/10/19 04:14:03;;;;;;;17.00;10.83;;;;;;;;;;5110173;28;20474;-81
2023/10/19 04:16:37;;;;;;;20.13;12.83;;;;;;;;;;5112619;28;20523;-80
2023/10/19 04:19:05;;;;;;;17.10;12.13;;;;;;;;;;5108853;28;20846;-78
2023/10/19 04:21:38;;;;;;;15.97;10.90;;;;;;;;;;5107256;28;20844;-79
2023/10/19 04:24:10;;;;;;;15.80;9.97;;;;;;;;;;5109603;28;20473;-81
2023/10/19 04:26:40;;;;;;;19.20;11.10;;;;;;;;;;5108320;28;20824;-81
2023/10/19 04:29:12;;;;;;;16.63;10.03;;;;;;;;;;5107181;28;20886;-79
2023/10/19 04:31:49;;;;;;;18.20;11.20;;;;;;;;;;5108859;28;20546;-79
2023/10/19 04:34:20;;;;;;;19.23;11.37;;;;;;;;;;5106066;28;20522;-79
2023/10/19 04:36:54;;;;;;;13.33;9.47;;;;;;;;;;5107448;28;20448;-80
2023/10/19 04:39:21;;;;;;;19.07;11.37;;;;;;;;;;5109594;28;20473;-78
2023/10/19 04:41:49;;;;;;;22.57;10.90;;;;;;;;;;5109393;28;20455;-78
2023/10/19 04:44:17;;;;;;;27.20;12.30;;;;;;;;;;5104415;28;20513;-81
2023/10/19 04:46:45;;;;;;;15.07;11.10;;;;;;;;;;5107250;28;20502;-78
2023/10/19 04:49:12;;;;;;;17.53;11.30;;;;;;;;;;5100276;28;20517;-79
2023/10/19 04:51:39;;;;;;;21.27;11.30;;;;;;;;;;5106159;28;20876;-79
2023/10/19 04:54:09;;;;;;;15.70;11.50;;;;;;;;;;5100871;28;20457;-80
2023/10/19 04:56:39;;;;;;;16.83;10.60;;;;;;;;;;5097631;28;20680;-79
2023/10/19 04:59:09;;;;;;;15.10;10.40;;;;;;;;;;5111470;28;20455;-80
2023/10/19 05:01:37;;;;;;;18.67;11.90;;;;;;;;;;5111251;28;20436;-78
2023/10/19 05:04:04;;;;;;;18.93;11.23;;;;;;;;;;5100736;28;20510;-80
2023/10/19 05:06:32;;;;;;;19.37;12.77;;;;;;;;;;5099134;28;20511;-78
2023/10/19 05:08:59;;;;;;;19.27;12.60;;;;;;;;;;5097679;28;20440;-79
2023/10/19 05:11:28;;;;;;;19.70;13.63;;;;;;;;;;5101497;28;20502;-79
2023/10/19 05:13:55;;;;;;;17.83;12.80;;;;;;;;;;5098621;28;20539;-81
2023/10/19 05:16:23;;;;;;;19.43;13.30;;;;;;;;;;5102354;28;20448;-80
2023/10/19 05:18:50;;;;;;;15.73;11.13;;;;;;;;;;5107670;28;20485;-81
2023/10/19 05:21:18;;;;;;;23.27;13.63;;;;;;;;;;5103016;28;20435;-80
2023/10/19 05:23:45;;;;;;;21.43;12.03;;;;;;;;;;5102959;28;20432;-81
2023/10/19 05:26:14;;;;;;;15.63;11.13;;;;;;;;;;5109932;28;20505;-80
2023/10/19 05:28:43;;;;;;;19.50;12.00;;;;;;;;;;5111851;28;20448;-79
2023/10/19 05:31:16;;;;;;;16.40;11.50;;;;;;;;;;5112130;28;20491;-79
2023/10/19 05:33:44;;;;;;;20.67;12.67;;;;;;;;;;5112189;28;20416;-78
2023/10/19 05:36:11;;;;;;;16.27;10.40;;;;;;;;;;5107544;28;20439;-79
2023/10/19 05:38:39;;;;;;;20.50;13.37;;;;;;;;;;5098572;28;20647;-78
2023/10/19 05:41:07;;;;;;;18.93;12.07;;;;;;;;;;5098051;28;20455;-79
2023/10/19 05:43:35;;;;;;;21.50;12.13;;;;;;;;;;5101433;28;20462;-79
2023/10/19 05:46:04;;;;;;;19.30;12.27;;;;;;;;;;5102078;28;20451;-80
2023/10/19 05:48:33;;;;;;;17.60;11.77;;;;;;;;;;5110083;28;20447;-81
2023/10/19 05:51:00;;;;;;;17.33;11.03;;;;;;;;;;5109009;28;20483;-79
2023/10/19 05:53:29;;;;;;;18.47;10.73;;;;;;;;;;5101625;28;20447;-81
2023/10/19 05:55:57;;;;;;;19.20;12.30;;;;;;;;;;5101782;28;20466;-80
2023/10/19 05:58:26;;;;;;;16.57;10.47;;;;;;;;;;5100848;28;20847;-79
2023/10/19 06:00:54;;;;;;;16.17;11.90;;;;;;;;;;5100431;28;20451;-78
2023/10/19 06:03:23;;;;;;;18.47;11.67;;;;;;;;;;5101029;28;20508;-79
2023/10/19 06:05:56;;;;;;;19.73;13.30;;;;;;;;;;5097005;28;20455;-79
2023/10/19 06:08:24;;;;;;;17.60;11.30;;;;;;;;;;5096380;28;20523;-79
2023/10/19 06:10:53;;;;;;;15.80;10.50;;;;;;;;;;5101387;28;20512;-79
2023/10/19 06:13:21;;;;;;;19.43;10.97;;;;;;;;;;5111720;28;20510;-79
2023/10/19 06:15:56;;;;;;;17.17;11.80;;;;;;;;;;5099879;28;20463;-80
2023/10/19 06:18:25;;;;;;;16.97;10.97;;;;;;;;;;5097599;28;20466;-76
2023/10/19 06:21:16;;;;;;;18.63;12.27;;;;;;;;;;5100248;28;20455;-80
2023/10/19 06:23:43;;;;;;;16.53;10.50;;;;;;;;;;5110312;28;20458;-79
2023/10/19 06:26:12;;;;;;;18.70;11.47;;;;;;;;;;5112810;28;20535;-80
2023/10/19 06:28:40;;;;;;;17.87;11.70;;;;;;;;;;5110486;28;20508;-80
2023/10/19 06:31:08;;;;;;;18.30;12.00;;;;;;;;;;5110233;28;20498;-80
2023/10/19 06:33:41;;;;;;;15.83;10.37;;;;;;;;;;5100530;28;20517;-78
2023/10/19 06:36:09;;;;;;;14.93;10.33;;;;;;;;;;5098779;28;20451;-78
2023/10/19 06:38:39;;;;;;;17.60;11.10;;;;;;;;;;5100234;28;20462;-79
2023/10/19 06:41:15;;;;;;;17.50;11.10;;;;;;;;;;5105438;28;20455;-80
2023/10/19 06:43:43;;;;;;;19.40;12.80;;;;;;;;;;5112258;28;20503;-78
2023/10/19 06:46:11;;;;;;;15.83;10.77;;;;;;;;;;5106818;28;20473;-82
2023/10/19 06:48:40;;;;;;;17.87;10.20;;;;;;;;;;5096278;28;21038;-80
2023/10/19 06:51:08;;;;;;;17.93;10.53;;;;;;;;;;5100770;28;20490;-78
2023/10/19 06:53:36;;;;;;;21.83;12.30;;;;;;;;;;5097664;28;20562;-78
2023/10/19 06:56:04;;;;;;;15.70;11.00;;;;;;;;;;5096362;28;20607;-78
2023/10/19 06:58:31;;;;;;;18.90;11.37;;;;;;;;;;5094933;28;20458;-80
2023/10/19 07:00:59;;;;;;;19.13;11.17;;;;;;;;;;5095835;28;20508;-79
2023/10/19 07:03:29;;;;;;;18.10;12.03;;;;;;;;;;5102464;28;20483;-78
2023/10/19 07:05:59;;;;;;;18.27;11.73;;;;;;;;;;5102877;28;21088;-80
2023/10/19 07:08:27;;;;;;;20.07;11.57;;;;;;;;;;5098870;28;20579;-79
2023/10/19 07:10:54;;;;;;;18.10;11.60;;;;;;;;;;5087478;28;20484;-80
2023/10/19 07:13:22;;;;;;;16.47;10.57;;;;;;;;;;5082906;28;20440;-79
2023/10/19 07:15:51;;;;;;;16.00;11.63;;;;;;;;;;5081587;28;20453;-78
2023/10/19 07:18:19;;;;;;;24.97;11.90;;;;;;;;;;5080685;28;20523;-79
2023/10/19 07:20:48;;;;;;;16.80;11.37;;;;;;;;;;5082640;28;20457;-79
2023/10/19 07:23:21;;;;;;;22.20;11.73;;;;;;;;;;5082152;28;20468;-79
2023/10/19 07:25:53;;;;;;;20.93;15.03;;;;;;;;;;5081296;28;20485;-79
2023/10/19 07:28:21;;;;;;;20.53;12.33;;;;;;;;;;5081078;28;20570;-79
2023/10/19 07:30:51;;;;;;;15.10;10.10;;;;;;;;;;5083051;28;20499;-79
2023/10/19 07:33:20;;;;;;;16.00;11.00;;;;;;;;;;5083603;28;20444;-78
2023/10/19 07:35:48;;;;;;;19.73;12.57;;;;;;;;;;5082996;28;20522;-78
2023/10/19 07:38:17;;;;;;;18.80;11.67;;;;;;;;;;5079050;28;20479;-79
2023/10/19 07:40:45;;;;;;;17.80;12.40;;;;;;;;;;5079871;28;20444;-80
2023/10/19 07:43:13;;;;;;;21.07;12.20;;;;;;;;;;5065509;28;20560;-81
2023/10/19 07:45:41;;;;;;;18.87;13.50;;;;;;;;;;5088217;28;20458;-82
2023/10/19 07:48:10;;;;;;;20.63;11.40;;;;;;;;;;5104171;28;20871;-81
2023/10/19 07:50:40;;;;;;;20.63;12.23;;;;;;;;;;5106381;28;20472;-79
2023/10/19 07:53:09;;;;;;;15.90;10.37;;;;;;;;;;5106444;28;20451;-80
2023/10/19 07:55:39;;;;;;;19.80;12.63;;;;;;;;;;5106035;28;20442;-79
2023/10/19 07:58:08;;;;;;;15.83;11.83;;;;;;;;;;5106878;28;20554;-80
2023/10/19 08:00:54;;;;;;;20.50;12.10;;;;;;;;;;5105246;28;20460;-79
2023/10/19 08:03:22;;;;;;;18.60;12.20;;;;;;;;;;5094318;28;20482;-82
2023/10/19 08:05:50;;;;;;;16.13;11.47;;;;;;;;;;5090166;28;20459;-80
2023/10/19 08:08:19;;;;;;;26.13;13.57;;;;;;;;;;5088603;28;20513;-83
2023/10/19 08:10:49;;;;;;;19.30;13.13;;;;;;;;;;5087156;28;20523;-81
2023/10/19 08:13:18;;;;;;;20.90;13.50;;;;;;;;;;5089307;28;20475;-81
2023/10/19 08:15:58;;;;;;;20.00;11.90;;;;;;;;;;5089337;28;20511;-79
2023/10/19 08:18:30;;;;;;;20.60;13.70;;;;;;;;;;5095505;28;20461;-80
2023/10/19 08:20:58;;;;;;;20.30;12.50;;;;;;;;;;5093806;28;20502;-78
2023/10/19 08:23:27;;;;;;;17.83;12.60;;;;;;;;;;5087376;28;20448;-80
2023/10/19 08:25:59;;;;;;;20.73;12.20;;;;;;;;;;5085029;28;20758;-78
2023/10/19 08:28:40;;;;;;;17.90;12.17;;;;;;;;;;5106468;28;20474;-79
2023/10/19 08:31:14;;;;;;;25.13;13.20;;;;;;;;;;5106046;28;20483;-80
2023/10/19 08:33:47;;;;;;;18.60;12.97;;;;;;;;;;5108910;28;20502;-79
2023/10/19 08:42:23;;;;;;;18.40;13.87;;;;;;;;;;5102817;28;20454;-78
2023/10/19 08:44:52;;;;;;;20.27;12.53;;;;;;;;;;5104406;28;20455;-79
2023/10/19 08:47:25;;;;;;;19.87;13.47;;;;;;;;;;5098515;28;20559;-78
2023/10/19 08:49:53;;;;;;;21.60;12.97;;;;;;;;;;5086046;28;20484;-80
2023/10/19 09:28:56;;;;;;;;;;;;;;;;;;;;;
2023/10/19 09:40:33;;;;;;;24.20;15.67;;;;;;;;;;5085346;28;20255;-78
2023/10/19 09:43:20;;;;;;;21.70;13.70;;;;;;;;;;5094760;28;20495;-78
2023/10/19 09:58:54;;;;;;;27.20;15.97;;;;;;;;;;5013343;28;20473;-77
2023/10/19 10:01:54;;;;;;;22.43;14.47;;;;;;;;;;5014788;28;20510;-78
2023/10/19 10:11:10;;;;;;;23.17;14.73;;;;;;;;;;4944160;28;20789;-75
2023/10/19 10:16:56;;;;;;;28.30;17.33;;;;;;;;;;5050312;28;20499;-77
2023/10/19 10:19:58;;;;;;;;;;;;;;;;;;;;;
2023/10/19 10:23:23;;;;;;;22.53;15.67;;;;;;;;;;5029820;28;20499;-77
2023/10/19 10:59:40;;;;;;;26.80;16.90;;;;;;;;;;5029795;28;20436;-77
2023/10/19 11:02:21;;;;;;;26.60;17.33;;;;;;;;;;5079807;28;20456;-76
2023/10/19 11:18:32;;;;;;;23.57;16.90;;;;;;;;;;4996169;28;20445;-78
2023/10/19 11:27:18;;;;;;;;;;;;;;;;;;;;;
2023/10/19 11:30:48;;;;;;;24.80;16.53;;;;;;;;;;5059988;28;20445;-79
2023/10/19 11:36:16;;;;;;;24.00;17.63;;;;;;;;;;5093422;28;20456;-77
2023/10/19 11:39:04;;;;;;;22.57;18.23;;;;;;;;;;5101281;28;20928;-77
2023/10/19 11:54:32;;;;;;;;;;;;;;;;;;;;;
2023/10/19 11:57:12;;;;;;;21.40;16.47;;;;;;;;;;5068940;28;20471;-79
2023/10/19 12:02:52;;;;;;;22.20;16.37;;;;;;;;;;5096338;28;21079;-76
2023/10/19 12:05:24;;;;;;;23.80;17.20;;;;;;;;;;5097049;28;20563;-76
2023/10/19 12:08:20;;;;;;;24.73;17.47;;;;;;;;;;5097682;28;20570;-76
2023/10/19 12:11:25;;;;;;;24.93;16.97;;;;;;;;;;5076776;28;20433;-76
2023/10/19 12:14:17;;;;;;;25.23;18.57;;;;;;;;;;5071479;28;20545;-78
2023/10/19 12:16:53;;;;;;;27.40;18.77;;;;;;;;;;5068933;28;20457;-76
2023/10/19 12:19:23;;;;;;;23.60;16.47;;;;;;;;;;5072224;28;20546;-77
2023/10/19 12:22:32;;;;;;;27.10;17.70;;;;;;;;;;5073305;28;20456;-78
2023/10/19 12:25:34;;;;;;;24.40;17.57;;;;;;;;;;5064025;28;20440;-77
2023/10/19 12:28:24;;;;;;;23.27;18.40;;;;;;;;;;5064587;28;20483;-77
2023/10/19 12:31:08;;;;;;;26.60;17.60;;;;;;;;;;5095935;28;20495;-77
2023/10/19 12:34:26;;;;;;;;;;;;;;;;;;;;;
2023/10/19 12:40:41;;;;;;;23.80;17.50;;;;;;;;;;5048103;28;20480;-76
2023/10/19 12:43:18;;;;;;;28.97;18.67;;;;;;;;;;5095747;28;20452;-80
2023/10/19 12:48:37;;;;;;;22.07;15.87;;;;;;;;;;5099505;28;20555;-79
2023/10/19 12:51:07;;;;;;;22.70;15.80;;;;;;;;;;5105974;28;20467;-79
2023/10/19 12:53:38;;;;;;;21.30;16.00;;;;;;;;;;5101208;28;20497;-79
2023/10/19 12:56:10;;;;;;;19.50;15.90;;;;;;;;;;5100716;28;20460;-81
2023/10/19 12:58:39;;;;;;;30.73;16.83;;;;;;;;;;5102100;28;20456;-80
2023/10/19 13:01:11;;;;;;;25.77;18.33;;;;;;;;;;5083587;28;20440;-80
2023/10/19 13:03:41;;;;;;;24.47;17.10;;;;;;;;;;5101464;28;20526;-81
2023/10/19 13:06:13;;;;;;;23.70;17.13;;;;;;;;;;5089828;28;20458;-81
2023/10/19 13:08:43;;;;;;;23.17;18.13;;;;;;;;;;5095975;28;20462;-79
2023/10/19 13:11:14;;;;;;;25.23;18.17;;;;;;;;;;5093714;28;20445;-82
2023/10/19 13:13:41;;;;;;;231.30;163.87;;;;;;;;;;5099241;28;20890;-80
2023/10/19 13:16:32;;;;;;;25.30;18.53;;;;;;;;;;5094706;28;20495;-81
2023/10/19 13:19:08;;;;;;;29.03;18.50;;;;;;;;;;5094094;28;20666;-82
2023/10/19 13:21:37;;;;;;;30.73;20.13;;;;;;;;;;5094119;28;20524;-82
2023/10/19 13:24:08;;;;;;;23.67;18.33;;;;;;;;;;5089453;28;20518;-81
2023/10/19 13:26:38;;;;;;;27.50;19.50;;;;;;;;;;5082964;28;20452;-79
2023/10/19 13:29:08;;;;;;;27.60;19.73;;;;;;;;;;5097444;28;20455;-79
2023/10/19 13:31:36;;;;;;;27.70;18.80;;;;;;;;;;5072395;28;20463;-78
2023/10/19 13:34:10;;;;;;;27.37;21.07;;;;;;;;;;5093818;28;20891;-79
2023/10/19 13:36:40;;;;;;;27.33;19.33;;;;;;;;;;5079680;28;20518;-81
2023/10/19 13:39:24;;;;;;;35.33;23.73;;;;;;;;;;5078276;28;20452;-80
2023/10/19 13:41:53;;;;;;;27.20;19.57;;;;;;;;;;5076057;28;20457;-81
2023/10/19 13:44:22;;;;;;;27.03;19.97;;;;;;;;;;5091527;28;20533;-83
2023/10/19 13:47:00;;;;;;;25.43;19.07;;;;;;;;;;5104680;28;20467;-80
2023/10/19 13:49:31;;;;;;;30.43;18.13;;;;;;;;;;5090038;28;20470;-80
2023/10/19 13:52:09;;;;;;;27.43;18.07;;;;;;;;;;5094137;28;20503;-80
2023/10/19 13:54:38;;;;;;;26.47;18.20;;;;;;;;;;5087221;28;20469;-82
2023/10/19 13:57:29;;;;;;;23.93;17.10;;;;;;;;;;5096377;28;20452;-79
2023/10/19 14:02:50;;;;;;;28.50;17.60;;;;;;;;;;5080775;28;20856;-79
2023/10/19 14:08:21;;;;;;;22.50;16.97;;;;;;;;;;5077607;28;20448;-80
2023/10/19 14:10:53;;;;;;;23.70;15.63;;;;;;;;;;5093948;28;20463;-80
2023/10/19 14:13:26;;;;;;;25.70;17.17;;;;;;;;;;5086076;28;20548;-81
2023/10/19 14:16:00;;;;;;;23.63;17.57;;;;;;;;;;5092349;28;20507;-78
2023/10/19 14:18:33;;;;;;;23.97;17.17;;;;;;;;;;5105605;28;20527;-80
2023/10/19 14:21:26;;;;;;;26.77;17.43;;;;;;;;;;5068110;28;20507;-79
2023/10/19 14:24:02;;;;;;;24.07;16.47;;;;;;;;;;5088917;28;20496;-80
2023/10/19 14:26:38;;;;;;;25.10;18.87;;;;;;;;;;5085783;28;20454;-79
2023/10/19 14:29:11;;;;;;;24.00;17.13;;;;;;;;;;5090190;28;20547;-77
2023/10/19 14:31:41;;;;;;;21.60;15.90;;;;;;;;;;5088419;28;20488;-80
2023/10/19 14:34:17;;;;;;;21.60;15.80;;;;;;;;;;5087159;28;20494;-81
2023/10/19 14:36:47;;;;;;;23.33;15.93;;;;;;;;;;5108875;28;20442;-78
2023/10/19 14:39:20;;;;;;;26.83;17.00;;;;;;;;;;5102500;28;20495;-79
2023/10/19 14:42:16;;;;;;;23.77;16.73;;;;;;;;;;5086047;28;20934;-78
2023/10/19 14:44:51;;;;;;;28.50;18.20;;;;;;;;;;5083723;28;20529;-79
2023/10/19 14:47:20;;;;;;;28.80;17.17;;;;;;;;;;5101436;28;20478;-79
2023/10/19 14:49:50;;;;;;;25.17;16.73;;;;;;;;;;5105099;28;20463;-79
2023/10/19 14:52:23;;;;;;;24.20;17.97;;;;;;;;;;5091147;28;20479;-79
2023/10/19 14:54:54;;;;;;;23.27;17.17;;;;;;;;;;5104216;28;20527;-80
2023/10/19 14:57:27;;;;;;;26.03;16.13;;;;;;;;;;5093078;28;20620;-79
2023/10/19 15:00:21;;;;;;;25.90;19.07;;;;;;;;;;5091068;28;21269;-81
2023/10/19 15:03:00;;;;;;;22.80;16.27;;;;;;;;;;5105619;28;20509;-83
2023/10/19 15:05:35;;;;;;;26.77;18.90;;;;;;;;;;5071530;28;20977;-80
2023/10/19 15:08:04;;;;;;;22.93;17.20;;;;;;;;;;5090278;28;20505;-80
2023/10/19 15:10:32;;;;;;;26.60;17.80;;;;;;;;;;5083713;28;20453;-81
2023/10/19 15:13:00;;;;;;;20.50;15.40;;;;;;;;;;5078784;28;20496;-77
2023/10/19 15:15:34;;;;;;;23.93;16.77;;;;;;;;;;5082163;28;20460;-79
2023/10/19 15:18:01;;;;;;;22.63;16.17;;;;;;;;;;5084348;28;20482;-78
2023/10/19 15:20:32;;;;;;;23.67;16.90;;;;;;;;;;5085779;28;20844;-81
2023/10/19 15:22:59;;;;;;;22.27;17.07;;;;;;;;;;5073059;28;20524;-79
2023/10/19 15:25:27;;;;;;;25.67;17.63;;;;;;;;;;5081075;28;20963;-78
2023/10/19 15:27:55;;;;;;;26.67;17.23;;;;;;;;;;5080619;28;20463;-79
2023/10/19 15:30:27;;;;;;;23.37;16.23;;;;;;;;;;5081742;28;20453;-80
2023/10/19 15:32:56;;;;;;;26.07;17.77;;;;;;;;;;5108241;28;20475;-79
2023/10/19 15:35:32;;;;;;;22.77;15.97;;;;;;;;;;5112469;28;20547;-79
2023/10/19 15:38:00;;;;;;;26.97;17.63;;;;;;;;;;5104889;28;20451;-79
2023/10/19 15:40:29;;;;;;;23.90;17.00;;;;;;;;;;5106058;28;20440;-81
2023/10/19 15:42:58;;;;;;;23.90;16.60;;;;;;;;;;5101948;28;20696;-79
2023/10/19 15:45:34;;;;;;;24.60;17.77;;;;;;;;;;5104780;28;20785;-83
2023/10/19 15:48:03;;;;;;;26.13;18.43;;;;;;;;;;5095081;28;20528;-81
2023/10/19 15:50:33;;;;;;;29.00;16.83;;;;;;;;;;5120713;28;20522;-78
2023/10/19 15:53:01;;;;;;;22.80;16.07;;;;;;;;;;5092376;28;20484;-78
2023/10/19 15:55:29;;;;;;;23.83;18.43;;;;;;;;;;5091032;28;20500;-80
2023/10/19 15:57:57;;;;;;;22.23;16.53;;;;;;;;;;5099919;28;21072;-78
2023/10/19 16:00:24;;;;;;;27.13;18.03;;;;;;;;;;5107760;28;20519;-80
2023/10/19 16:02:52;;;;;;;24.23;16.93;;;;;;;;;;5094851;28;20503;-80
2023/10/19 16:05:22;;;;;;;26.10;16.67;;;;;;;;;;5094055;28;20443;-81
2023/10/19 16:40:59;;;;;;;28.40;19.13;;;;;;;;;;5057355;22;22311;-80
2023/10/19 16:43:27;;;;;;;29.47;19.20;;;;;;;;;;5066319;28;20476;-79
2023/10/19 16:45:55;;;;;;;28.53;19.50;;;;;;;;;;5062393;28;20446;-79
2023/10/19 16:48:22;;;;;;;28.50;17.57;;;;;;;;;;5086151;28;20428;-80
2023/10/19 16:50:50;;;;;;;25.53;16.50;;;;;;;;;;5100346;28;20452;-79
2023/10/19 16:53:18;;;;;;;27.67;18.63;;;;;;;;;;5099412;28;20493;-79
2023/10/19 16:55:45;;;;;;;25.77;18.33;;;;;;;;;;5102900;28;20452;-77
2023/10/19 16:58:15;;;;;;;27.20;19.97;;;;;;;;;;5099888;28;20474;-80
2023/10/19 17:00:43;;;;;;;23.80;17.10;;;;;;;;;;5104488;28;20448;-80
2023/10/19 17:03:11;;;;;;;25.97;17.30;;;;;;;;;;5094225;28;20470;-81
2023/10/19 17:05:39;;;;;;;27.50;19.57;;;;;;;;;;5095040;28;20443;-78
2023/10/19 17:08:07;;;;;;;30.00;17.87;;;;;;;;;;5075193;28;20467;-79
2023/10/19 17:10:35;;;;;;;25.47;18.10;;;;;;;;;;5074661;28;20441;-79
2023/10/19 17:13:03;;;;;;;27.60;18.47;;;;;;;;;;5058783;28;20576;-76
2023/10/19 17:15:33;;;;;;;23.53;17.13;;;;;;;;;;5062135;28;20485;-79
2023/10/19 17:18:01;;;;;;;24.73;17.30;;;;;;;;;;5076348;28;20464;-79
2023/10/19 17:20:30;;;;;;;25.50;18.70;;;;;;;;;;5064515;28;20469;-81
2023/10/19 17:22:59;;;;;;;22.57;16.97;;;;;;;;;;5056160;28;20461;-81
2023/10/19 17:25:29;;;;;;;25.47;18.90;;;;;;;;;;5053769;28;20480;-79
2023/10/19 17:27:57;;;;;;;22.77;18.00;;;;;;;;;;5063115;28;20518;-79
2023/10/19 17:30:26;;;;;;;24.17;17.73;;;;;;;;;;5060460;28;20441;-79
2023/10/19 17:32:55;;;;;;;23.80;18.30;;;;;;;;;;5062356;28;20531;-79
2023/10/19 17:35:23;;;;;;;25.53;18.30;;;;;;;;;;5066876;28;20453;-79
2023/10/19 17:37:51;;;;;;;29.90;19.83;;;;;;;;;;5081852;28;20460;-79
2023/10/19 17:40:19;;;;;;;27.00;19.33;;;;;;;;;;5083122;28;20448;-80
2023/10/19 17:42:46;;;;;;;24.13;18.83;;;;;;;;;;5063501;28;20488;-79
2023/10/19 17:45:16;;;;;;;27.90;18.67;;;;;;;;;;5083717;28;20453;-80
2023/10/19 17:47:44;;;;;;;22.20;17.70;;;;;;;;;;5081423;28;20448;-78
2023/10/19 17:50:19;;;;;;;23.20;17.93;;;;;;;;;;5081764;28;20463;-78
2023/10/19 17:52:47;;;;;;;26.47;19.40;;;;;;;;;;5081248;28;20494;-80
2023/10/19 17:55:17;;;;;;;27.40;19.13;;;;;;;;;;5082158;28;20448;-80
2023/10/19 17:57:45;;;;;;;25.57;18.70;;;;;;;;;;5085786;28;20511;-80
2023/10/19 18:00:17;;;;;;;25.70;20.63;;;;;;;;;;5087117;28;20462;-78
2023/10/19 18:02:45;;;;;;;25.30;17.70;;;;;;;;;;5080494;28;20449;-77
2023/10/19 18:05:14;;;;;;;28.70;19.77;;;;;;;;;;5083564;28;20444;-80
2023/10/19 18:07:42;;;;;;;31.70;19.33;;;;;;;;;;5087478;28;20780;-79